Airfield :
LOGIN :

Register | Disclaimer

   EN    FR    IT 

 










Legend :    VFR   Marginal VFR   IFR   Intensive IFR   Very Intensive IFR
Visi :
Ceiling :
>= 8 km
>= 3000ft
5 to 8 km
1000 to 3000 ft
1500m to 5 km
500 to 1000 ft
800 to 1500m
200 to 500 ft
< 800m
< 200 ft
Symbols :   Thunderstorms  Fog  Heavy snow  Heavy precipitations  Wind > 20 kt
SIGMETs :     Misc.  Thunderstorms  Icing  Turbulence  Mountain Waves  Volcanic Ashes







- Airport Elevation : 112 ft
- IATA code : SVQ


LEZL - Sevilla San Pablo

CURRENT METAR :
  • 251800Z 23012KT 200V260 CAVOK 20/13 Q1010 NOSIG

EXPIRED METARs :
  • 251730Z 22013KT CAVOK 20/12 Q1010 NOSIG
  • 251700Z 23013KT 200V260 9999 FEW040 21/12 Q1010 NOSIG
  • 251630Z 22014KT 190V250 9999 FEW040 22/11 Q1010 NOSIG
  • 251600Z 23013KT 210V270 9999 FEW048 22/11 Q1010 NOSIG
  • 251530Z 24013KT 9999 SCT048 23/12 Q1010 NOSIG

TAF TAF LEZL
Valid from the 25 at 15:00 until the 26 at 15:00 UTC


251400Z 2515/2615 22009KT 9999 SCT030 TX25/2615Z TN14/2602Z
PROB40
TEMPO 2603/2608 2000 BR BKN010
No reported NOTAMs for that airfield.
3 SIGMETs reported for the Madrid FIR (LECM) :
 
Embedded thunderstorms
LECM SIGMET 12 VALID 251800/252000 LEVA
LECM MADRID FIR/UIR EMBD TS OBS AT 1733Z E OF LINE N4120 W00450 - N3710 W002 TOP FL340 MOV NE NC=
Embedded thunderstorms
LECM SIGMET 11 VALID 251637/251800 LEVA
LECM MADRID FIR/UIR EMBD TS OBS AT 1616Z WI N4120 W004 - N4020 W00320 - N3940 W005 - N4050 W00550 TOP FL340 MOV NE NC=
Embedded thunderstorms
LECM SIGMET 10 VALID 251600/251800 LEVA
LECM MADRID FIR/UIR EMBD TS OBS AT 1538Z E OF LINE N4310 W00410 - N3730 W00230 TOP FL340 MOV NE NC=



MET'MAP, your aeronautical weather chart ! - Copyright ORBIFLY December 2007 - Disclaimer

ORBIFLY MET'MAP TEAM :

Programming & Development : Alexandra Zaïnal
Concept & Development : Baudouin d'Aumeries
Co-Development & Prog : Marc-Olivier Méhu
Technical & hardware support : Manuel Goepfert

Contact : metmap@orbifly.com




SOURCES & CREDITS :

   NOAA